sensor_id;sensor_type;location;lat;lon;timestamp;pressure;altitude;pressure_sealevel;temperature
68939;BMP180;59064;45.294;11.816;2024-02-04T00:00:29;102173.60;;;3.70
68939;BMP180;59064;45.294;11.816;2024-02-04T00:02:54;102178.60;;;3.70
68939;BMP180;59064;45.294;11.816;2024-02-04T00:05:20;102181.20;;;3.70
68939;BMP180;59064;45.294;11.816;2024-02-04T00:07:46;102182.20;;;3.70
68939;BMP180;59064;45.294;11.816;2024-02-04T00:10:11;102180.20;;;3.60
68939;BMP180;59064;45.294;11.816;2024-02-04T00:12:38;102175.80;;;3.60
68939;BMP180;59064;45.294;11.816;2024-02-04T00:15:04;102166.40;;;3.60
68939;BMP180;59064;45.294;11.816;2024-02-04T00:17:31;102166.20;;;3.70
68939;BMP180;59064;45.294;11.816;2024-02-04T00:19:58;102167.00;;;3.74
68939;BMP180;59064;45.294;11.816;2024-02-04T00:22:24;102157.20;;;3.80
68939;BMP180;59064;45.294;11.816;2024-02-04T00:24:50;102153.00;;;3.80
68939;BMP180;59064;45.294;11.816;2024-02-04T00:27:15;102156.80;;;3.86
68939;BMP180;59064;45.294;11.816;2024-02-04T00:29:41;102153.40;;;3.90
68939;BMP180;59064;45.294;11.816;2024-02-04T00:32:06;102152.00;;;3.92
68939;BMP180;59064;45.294;11.816;2024-02-04T00:34:32;102159.20;;;4.00
68939;BMP180;59064;45.294;11.816;2024-02-04T00:36:58;102164.40;;;4.10
68939;BMP180;59064;45.294;11.816;2024-02-04T00:39:24;102161.60;;;4.10
68939;BMP180;59064;45.294;11.816;2024-02-04T00:41:49;102157.80;;;4.14
68939;BMP180;59064;45.294;11.816;2024-02-04T00:44:15;102147.20;;;4.12
68939;BMP180;59064;45.294;11.816;2024-02-04T00:46:40;102156.80;;;4.10
68939;BMP180;59064;45.294;11.816;2024-02-04T00:49:06;102154.20;;;4.00
68939;BMP180;59064;45.294;11.816;2024-02-04T00:51:31;102160.20;;;4.00
68939;BMP180;59064;45.294;11.816;2024-02-04T00:53:58;102151.80;;;3.90
68939;BMP180;59064;45.294;11.816;2024-02-04T00:56:24;102148.40;;;3.90
68939;BMP180;59064;45.294;11.816;2024-02-04T00:58:50;102144.20;;;3.90
68939;BMP180;59064;45.294;11.816;2024-02-04T01:01:16;102147.00;;;3.90
68939;BMP180;59064;45.294;11.816;2024-02-04T01:03:42;102148.40;;;3.80
68939;BMP180;59064;45.294;11.816;2024-02-04T01:06:07;102143.60;;;3.80
68939;BMP180;59064;45.294;11.816;2024-02-04T01:08:33;102146.00;;;3.70
68939;BMP180;59064;45.294;11.816;2024-02-04T01:11:00;102148.20;;;3.70
68939;BMP180;59064;45.294;11.816;2024-02-04T01:13:25;102148.20;;;3.70
68939;BMP180;59064;45.294;11.816;2024-02-04T01:15:51;102149.60;;;3.68
68939;BMP180;59064;45.294;11.816;2024-02-04T01:18:16;102157.20;;;3.70
68939;BMP180;59064;45.294;11.816;2024-02-04T01:20:42;102156.40;;;3.64
68939;BMP180;59064;45.294;11.816;2024-02-04T01:23:08;102163.60;;;3.60
68939;BMP180;59064;45.294;11.816;2024-02-04T01:25:34;102165.60;;;3.60
68939;BMP180;59064;45.294;11.816;2024-02-04T01:27:59;102161.20;;;3.60
68939;BMP180;59064;45.294;11.816;2024-02-04T01:30:25;102160.60;;;3.60
68939;BMP180;59064;45.294;11.816;2024-02-04T01:32:50;102162.00;;;3.60
68939;BMP180;59064;45.294;11.816;2024-02-04T01:35:15;102162.60;;;3.60
68939;BMP180;59064;45.294;11.816;2024-02-04T01:37:41;102160.20;;;3.60
68939;BMP180;59064;45.294;11.816;2024-02-04T01:40:09;102159.80;;;3.50
68939;BMP180;59064;45.294;11.816;2024-02-04T01:42:35;102159.00;;;3.50
68939;BMP180;59064;45.294;11.816;2024-02-04T01:45:00;102154.80;;;3.50
68939;BMP180;59064;45.294;11.816;2024-02-04T01:47:26;102149.00;;;3.46
68939;BMP180;59064;45.294;11.816;2024-02-04T01:49:51;102148.40;;;3.50
68939;BMP180;59064;45.294;11.816;2024-02-04T01:52:17;102141.20;;;3.50
68939;BMP180;59064;45.294;11.816;2024-02-04T01:54:43;102137.40;;;3.50
68939;BMP180;59064;45.294;11.816;2024-02-04T01:57:10;102132.20;;;3.50
68939;BMP180;59064;45.294;11.816;2024-02-04T01:59:39;102132.40;;;3.50
68939;BMP180;59064;45.294;11.816;2024-02-04T02:02:05;102130.60;;;3.40
68939;BMP180;59064;45.294;11.816;2024-02-04T02:04:31;102135.80;;;3.40
68939;BMP180;59064;45.294;11.816;2024-02-04T02:06:57;102139.20;;;3.40
68939;BMP180;59064;45.294;11.816;2024-02-04T02:09:25;102137.60;;;3.40
68939;BMP180;59064;45.294;11.816;2024-02-04T02:11:59;102128.20;;;3.32
68939;BMP180;59064;45.294;11.816;2024-02-04T02:14:30;102110.40;;;3.30
68939;BMP180;59064;45.294;11.816;2024-02-04T02:17:00;102101.00;;;3.20
68939;BMP180;59064;45.294;11.816;2024-02-04T02:22:29;102109.60;;;3.10
68939;BMP180;59064;45.294;11.816;2024-02-04T02:24:58;102105.80;;;3.10
68939;BMP180;59064;45.294;11.816;2024-02-04T02:27:25;102107.20;;;3.02
68939;BMP180;59064;45.294;11.816;2024-02-04T02:29:51;102119.20;;;3.06
68939;BMP180;59064;45.294;11.816;2024-02-04T02:32:16;102139.00;;;3.10
68939;BMP180;59064;45.294;11.816;2024-02-04T02:34:43;102151.80;;;3.20
68939;BMP180;59064;45.294;11.816;2024-02-04T02:39:52;102147.20;;;3.20
68939;BMP180;59064;45.294;11.816;2024-02-04T02:42:22;102145.40;;;3.20
68939;BMP180;59064;45.294;11.816;2024-02-04T02:44:49;102143.40;;;3.20
68939;BMP180;59064;45.294;11.816;2024-02-04T02:47:17;102138.60;;;3.18
68939;BMP180;59064;45.294;11.816;2024-02-04T02:49:43;102137.00;;;3.20
68939;BMP180;59064;45.294;11.816;2024-02-04T02:52:09;102145.80;;;3.18
68939;BMP180;59064;45.294;11.816;2024-02-04T02:54:35;102138.80;;;3.20
68939;BMP180;59064;45.294;11.816;2024-02-04T02:57:01;102135.20;;;3.10
68939;BMP180;59064;45.294;11.816;2024-02-04T02:59:26;102139.60;;;3.10
68939;BMP180;59064;45.294;11.816;2024-02-04T03:01:52;102143.40;;;3.10
68939;BMP180;59064;45.294;11.816;2024-02-04T03:04:18;102147.40;;;3.00
68939;BMP180;59064;45.294;11.816;2024-02-04T03:06:43;102153.60;;;3.00
68939;BMP180;59064;45.294;11.816;2024-02-04T03:09:09;102149.60;;;3.00
68939;BMP180;59064;45.294;11.816;2024-02-04T03:11:35;102145.80;;;2.90
68939;BMP180;59064;45.294;11.816;2024-02-04T03:14:03;102134.00;;;2.80
68939;BMP180;59064;45.294;11.816;2024-02-04T03:16:28;102119.80;;;2.76
68939;BMP180;59064;45.294;11.816;2024-02-04T03:18:54;102104.40;;;2.70
68939;BMP180;59064;45.294;11.816;2024-02-04T03:21:19;102083.40;;;2.60
68939;BMP180;59064;45.294;11.816;2024-02-04T03:23:45;102085.20;;;2.54
68939;BMP180;59064;45.294;11.816;2024-02-04T03:26:11;102078.60;;;2.50
68939;BMP180;59064;45.294;11.816;2024-02-04T03:28:37;102082.40;;;2.50
68939;BMP180;59064;45.294;11.816;2024-02-04T03:31:02;102090.40;;;2.42
68939;BMP180;59064;45.294;11.816;2024-02-04T03:33:28;102101.60;;;2.40
68939;BMP180;59064;45.294;11.816;2024-02-04T03:35:53;102101.80;;;2.30
68939;BMP180;59064;45.294;11.816;2024-02-04T03:38:19;102096.40;;;2.10
68939;BMP180;59064;45.294;11.816;2024-02-04T03:40:45;102091.60;;;1.94
68939;BMP180;59064;45.294;11.816;2024-02-04T03:43:11;102081.60;;;1.90
68939;BMP180;59064;45.294;11.816;2024-02-04T03:45:37;102064.80;;;1.88
68939;BMP180;59064;45.294;11.816;2024-02-04T03:48:03;102051.20;;;1.90
68939;BMP180;59064;45.294;11.816;2024-02-04T03:50:28;102058.00;;;1.90
68939;BMP180;59064;45.294;11.816;2024-02-04T03:52:54;102055.20;;;1.94
68939;BMP180;59064;45.294;11.816;2024-02-04T03:55:19;102045.20;;;1.90
68939;BMP180;59064;45.294;11.816;2024-02-04T03:57:45;102048.60;;;1.90
68939;BMP180;59064;45.294;11.816;2024-02-04T04:00:12;102059.60;;;1.80
68939;BMP180;59064;45.294;11.816;2024-02-04T04:02:37;102057.20;;;1.80
68939;BMP180;59064;45.294;11.816;2024-02-04T04:05:03;102056.00;;;1.80
68939;BMP180;59064;45.294;11.816;2024-02-04T04:07:30;102059.00;;;1.80
68939;BMP180;59064;45.294;11.816;2024-02-04T04:09:55;102060.80;;;1.80
68939;BMP180;59064;45.294;11.816;2024-02-04T04:12:21;102075.40;;;1.84
68939;BMP180;59064;45.294;11.816;2024-02-04T04:14:46;102078.00;;;1.80
68939;BMP180;59064;45.294;11.816;2024-02-04T04:17:11;102068.40;;;1.80
68939;BMP180;59064;45.294;11.816;2024-02-04T04:19:38;102058.00;;;1.90
68939;BMP180;59064;45.294;11.816;2024-02-04T04:22:04;102051.60;;;2.00
68939;BMP180;59064;45.294;11.816;2024-02-04T04:24:29;102054.60;;;2.10
68939;BMP180;59064;45.294;11.816;2024-02-04T04:26:55;102062.60;;;2.00
68939;BMP180;59064;45.294;11.816;2024-02-04T04:29:20;102077.60;;;1.90
68939;BMP180;59064;45.294;11.816;2024-02-04T04:31:46;102090.60;;;1.70
68939;BMP180;59064;45.294;11.816;2024-02-04T04:34:12;102093.20;;;1.52
68939;BMP180;59064;45.294;11.816;2024-02-04T04:36:37;102086.00;;;1.50
68939;BMP180;59064;45.294;11.816;2024-02-04T04:39:03;102090.20;;;1.40
68939;BMP180;59064;45.294;11.816;2024-02-04T04:41:28;102103.40;;;1.30
68939;BMP180;59064;45.294;11.816;2024-02-04T04:43:54;102109.80;;;1.30
68939;BMP180;59064;45.294;11.816;2024-02-04T04:46:20;102100.20;;;1.20
68939;BMP180;59064;45.294;11.816;2024-02-04T04:48:45;102082.00;;;1.10
68939;BMP180;59064;45.294;11.816;2024-02-04T04:51:11;102079.00;;;1.10
68939;BMP180;59064;45.294;11.816;2024-02-04T04:53:37;102088.20;;;1.20
68939;BMP180;59064;45.294;11.816;2024-02-04T04:56:04;102110.60;;;1.20
68939;BMP180;59064;45.294;11.816;2024-02-04T04:58:29;102111.00;;;1.22
68939;BMP180;59064;45.294;11.816;2024-02-04T05:00:55;102107.20;;;1.18
68939;BMP180;59064;45.294;11.816;2024-02-04T05:03:20;102102.00;;;1.10
68939;BMP180;59064;45.294;11.816;2024-02-04T05:05:46;102107.40;;;1.00
68939;BMP180;59064;45.294;11.816;2024-02-04T05:08:13;102117.60;;;1.10
68939;BMP180;59064;45.294;11.816;2024-02-04T05:10:40;102115.60;;;1.20
68939;BMP180;59064;45.294;11.816;2024-02-04T05:13:06;102115.40;;;1.34
68939;BMP180;59064;45.294;11.816;2024-02-04T05:15:32;102113.00;;;1.50
68939;BMP180;59064;45.294;11.816;2024-02-04T05:18:00;102118.00;;;1.60
68939;BMP180;59064;45.294;11.816;2024-02-04T05:20:25;102120.20;;;1.70
68939;BMP180;59064;45.294;11.816;2024-02-04T05:22:51;102123.00;;;1.80
68939;BMP180;59064;45.294;11.816;2024-02-04T05:25:16;102122.20;;;1.90
68939;BMP180;59064;45.294;11.816;2024-02-04T05:27:42;102131.40;;;2.00
68939;BMP180;59064;45.294;11.816;2024-02-04T05:30:08;102137.40;;;2.10
68939;BMP180;59064;45.294;11.816;2024-02-04T05:32:33;102139.60;;;2.20
68939;BMP180;59064;45.294;11.816;2024-02-04T05:34:59;102141.40;;;2.30
68939;BMP180;59064;45.294;11.816;2024-02-04T05:37:24;102148.00;;;2.30
68939;BMP180;59064;45.294;11.816;2024-02-04T05:39:50;102155.00;;;2.30
68939;BMP180;59064;45.294;11.816;2024-02-04T05:42:15;102153.00;;;2.38
68939;BMP180;59064;45.294;11.816;2024-02-04T05:44:41;102152.40;;;2.30
68939;BMP180;59064;45.294;11.816;2024-02-04T05:47:07;102157.40;;;2.20
68939;BMP180;59064;45.294;11.816;2024-02-04T05:49:33;102156.20;;;2.10
68939;BMP180;59064;45.294;11.816;2024-02-04T05:51:58;102153.20;;;2.10
68939;BMP180;59064;45.294;11.816;2024-02-04T05:54:24;102150.40;;;2.08
68939;BMP180;59064;45.294;11.816;2024-02-04T05:56:49;102151.20;;;2.10
68939;BMP180;59064;45.294;11.816;2024-02-04T05:59:15;102165.40;;;2.10
68939;BMP180;59064;45.294;11.816;2024-02-04T06:01:41;102158.40;;;2.10
68939;BMP180;59064;45.294;11.816;2024-02-04T06:04:08;102162.80;;;2.10
68939;BMP180;59064;45.294;11.816;2024-02-04T06:06:33;102156.20;;;2.08
68939;BMP180;59064;45.294;11.816;2024-02-04T06:08:59;102159.60;;;2.00
68939;BMP180;59064;45.294;11.816;2024-02-04T06:11:24;102158.40;;;2.00
68939;BMP180;59064;45.294;11.816;2024-02-04T06:13:50;102154.40;;;2.00
68939;BMP180;59064;45.294;11.816;2024-02-04T06:16:15;102165.80;;;2.00
68939;BMP180;59064;45.294;11.816;2024-02-04T06:18:41;102180.20;;;2.00
68939;BMP180;59064;45.294;11.816;2024-02-04T06:21:07;102182.00;;;2.00
68939;BMP180;59064;45.294;11.816;2024-02-04T06:23:34;102173.20;;;2.00
68939;BMP180;59064;45.294;11.816;2024-02-04T06:26:00;102181.80;;;2.00
68939;BMP180;59064;45.294;11.816;2024-02-04T06:28:26;102186.40;;;2.00
68939;BMP180;59064;45.294;11.816;2024-02-04T06:30:52;102195.00;;;2.00
68939;BMP180;59064;45.294;11.816;2024-02-04T06:33:18;102196.00;;;1.90
68939;BMP180;59064;45.294;11.816;2024-02-04T06:35:44;102193.00;;;1.90
68939;BMP180;59064;45.294;11.816;2024-02-04T06:38:09;102194.40;;;1.80
68939;BMP180;59064;45.294;11.816;2024-02-04T06:40:35;102201.00;;;1.80
68939;BMP180;59064;45.294;11.816;2024-02-04T06:43:00;102200.80;;;1.80
68939;BMP180;59064;45.294;11.816;2024-02-04T06:45:26;102200.00;;;1.80
68939;BMP180;59064;45.294;11.816;2024-02-04T06:47:51;102215.80;;;1.80
68939;BMP180;59064;45.294;11.816;2024-02-04T06:50:17;102210.20;;;1.90
68939;BMP180;59064;45.294;11.816;2024-02-04T06:52:44;102218.40;;;2.00
68939;BMP180;59064;45.294;11.816;2024-02-04T06:55:11;102219.20;;;2.10
68939;BMP180;59064;45.294;11.816;2024-02-04T06:57:37;102204.60;;;2.22
68939;BMP180;59064;45.294;11.816;2024-02-04T07:00:02;102207.80;;;2.38
68939;BMP180;59064;45.294;11.816;2024-02-04T07:02:36;102208.00;;;2.50
68939;BMP180;59064;45.294;11.816;2024-02-04T07:05:01;102211.40;;;2.60
68939;BMP180;59064;45.294;11.816;2024-02-04T07:07:27;102222.80;;;2.70
68939;BMP180;59064;45.294;11.816;2024-02-04T07:09:52;102211.40;;;2.80
68939;BMP180;59064;45.294;11.816;2024-02-04T07:12:18;102211.20;;;2.90
68939;BMP180;59064;45.294;11.816;2024-02-04T07:14:43;102216.80;;;2.90
68939;BMP180;59064;45.294;11.816;2024-02-04T07:17:09;102215.00;;;3.00
68939;BMP180;59064;45.294;11.816;2024-02-04T07:19:37;102216.40;;;3.06
68939;BMP180;59064;45.294;11.816;2024-02-04T07:22:03;102217.60;;;3.10
68939;BMP180;59064;45.294;11.816;2024-02-04T07:24:29;102222.40;;;3.10
68939;BMP180;59064;45.294;11.816;2024-02-04T07:26:54;102229.00;;;3.10
68939;BMP180;59064;45.294;11.816;2024-02-04T07:29:20;102228.80;;;3.10
68939;BMP180;59064;45.294;11.816;2024-02-04T07:31:46;102231.40;;;3.10
68939;BMP180;59064;45.294;11.816;2024-02-04T07:34:12;102229.20;;;3.10
68939;BMP180;59064;45.294;11.816;2024-02-04T07:36:37;102238.20;;;3.20
68939;BMP180;59064;45.294;11.816;2024-02-04T07:39:03;102237.80;;;3.40
68939;BMP180;59064;45.294;11.816;2024-02-04T07:41:30;102233.40;;;3.50
68939;BMP180;59064;45.294;11.816;2024-02-04T07:43:56;102234.00;;;3.70
68939;BMP180;59064;45.294;11.816;2024-02-04T07:46:22;102233.20;;;3.84
68939;BMP180;59064;45.294;11.816;2024-02-04T07:48:47;102235.80;;;4.00
68939;BMP180;59064;45.294;11.816;2024-02-04T07:51:13;102227.80;;;4.14
68939;BMP180;59064;45.294;11.816;2024-02-04T07:53:38;102229.20;;;4.30
68939;BMP180;59064;45.294;11.816;2024-02-04T07:56:04;102231.40;;;4.50
68939;BMP180;59064;45.294;11.816;2024-02-04T07:58:32;102231.80;;;4.64
68939;BMP180;59064;45.294;11.816;2024-02-04T08:00:58;102229.40;;;4.80
68939;BMP180;59064;45.294;11.816;2024-02-04T08:03:23;102221.60;;;4.90
68939;BMP180;59064;45.294;11.816;2024-02-04T08:05:49;102228.00;;;5.02
68939;BMP180;59064;45.294;11.816;2024-02-04T08:08:14;102217.20;;;5.10
68939;BMP180;59064;45.294;11.816;2024-02-04T08:10:40;102221.20;;;5.24
68939;BMP180;59064;45.294;11.816;2024-02-04T08:13:06;102222.60;;;5.34
68939;BMP180;59064;45.294;11.816;2024-02-04T08:15:31;102217.60;;;5.30
68939;BMP180;59064;45.294;11.816;2024-02-04T08:17:57;102209.80;;;5.20
68939;BMP180;59064;45.294;11.816;2024-02-04T08:20:22;102220.40;;;5.10
68939;BMP180;59064;45.294;11.816;2024-02-04T08:22:48;102220.20;;;5.04
68939;BMP180;59064;45.294;11.816;2024-02-04T08:25:14;102214.20;;;5.12
68939;BMP180;59064;45.294;11.816;2024-02-04T08:27:41;102208.00;;;5.20
68939;BMP180;59064;45.294;11.816;2024-02-04T08:30:07;102218.40;;;5.30
68939;BMP180;59064;45.294;11.816;2024-02-04T08:32:32;102223.80;;;5.40
68939;BMP180;59064;45.294;11.816;2024-02-04T08:34:58;102233.20;;;5.50
68939;BMP180;59064;45.294;11.816;2024-02-04T08:37:23;102237.60;;;5.66
68939;BMP180;59064;45.294;11.816;2024-02-04T08:39:49;102240.00;;;5.90
68939;BMP180;59064;45.294;11.816;2024-02-04T08:42:15;102248.80;;;6.10
68939;BMP180;59064;45.294;11.816;2024-02-04T08:44:41;102252.20;;;6.38
68939;BMP180;59064;45.294;11.816;2024-02-04T08:47:07;102246.60;;;6.54
68939;BMP180;59064;45.294;11.816;2024-02-04T08:49:38;102252.60;;;6.60
68939;BMP180;59064;45.294;11.816;2024-02-04T08:52:03;102261.20;;;6.78
68939;BMP180;59064;45.294;11.816;2024-02-04T08:54:29;102267.60;;;7.00
68939;BMP180;59064;45.294;11.816;2024-02-04T08:56:54;102266.20;;;7.12
68939;BMP180;59064;45.294;11.816;2024-02-04T08:59:20;102268.00;;;7.22
68939;BMP180;59064;45.294;11.816;2024-02-04T09:01:46;102271.80;;;7.30
68939;BMP180;59064;45.294;11.816;2024-02-04T09:04:12;102282.60;;;7.40
68939;BMP180;59064;45.294;11.816;2024-02-04T09:06:38;102285.20;;;7.50
68939;BMP180;59064;45.294;11.816;2024-02-04T09:09:03;102291.20;;;7.66
68939;BMP180;59064;45.294;11.816;2024-02-04T09:11:29;102280.20;;;7.80
68939;BMP180;59064;45.294;11.816;2024-02-04T09:13:55;102290.20;;;7.88
68939;BMP180;59064;45.294;11.816;2024-02-04T09:16:20;102289.20;;;7.90
68939;BMP180;59064;45.294;11.816;2024-02-04T09:18:46;102290.40;;;8.10
68939;BMP180;59064;45.294;11.816;2024-02-04T09:21:13;102281.00;;;8.22
68939;BMP180;59064;45.294;11.816;2024-02-04T09:23:39;102285.80;;;8.40
68939;BMP180;59064;45.294;11.816;2024-02-04T09:26:05;102280.80;;;8.50
68939;BMP180;59064;45.294;11.816;2024-02-04T09:28:30;102291.80;;;8.64
68939;BMP180;59064;45.294;11.816;2024-02-04T09:30:56;102293.40;;;8.80
68939;BMP180;59064;45.294;11.816;2024-02-04T09:33:21;102286.40;;;9.14
68939;BMP180;59064;45.294;11.816;2024-02-04T09:35:46;102295.80;;;9.54
68939;BMP180;59064;45.294;11.816;2024-02-04T09:38:14;102289.20;;;9.84
68939;BMP180;59064;45.294;11.816;2024-02-04T09:40:41;102295.40;;;10.10
68939;BMP180;59064;45.294;11.816;2024-02-04T09:43:07;102296.80;;;10.34
68939;BMP180;59064;45.294;11.816;2024-02-04T09:45:33;102301.20;;;10.60
68939;BMP180;59064;45.294;11.816;2024-02-04T09:48:00;102303.60;;;10.80
68939;BMP180;59064;45.294;11.816;2024-02-04T09:50:26;102301.00;;;10.70
68939;BMP180;59064;45.294;11.816;2024-02-04T09:52:57;102303.80;;;10.62
68939;BMP180;59064;45.294;11.816;2024-02-04T09:55:24;102298.80;;;10.90
68939;BMP180;59064;45.294;11.816;2024-02-04T09:57:51;102296.40;;;11.00
68939;BMP180;59064;45.294;11.816;2024-02-04T10:00:19;102286.60;;;11.24
68939;BMP180;59064;45.294;11.816;2024-02-04T10:02:47;102292.80;;;11.50
68939;BMP180;59064;45.294;11.816;2024-02-04T10:05:13;102290.80;;;11.60
68939;BMP180;59064;45.294;11.816;2024-02-04T10:07:39;102288.60;;;11.60
68939;BMP180;59064;45.294;11.816;2024-02-04T10:10:06;102292.60;;;11.50
68939;BMP180;59064;45.294;11.816;2024-02-04T10:12:32;102283.60;;;11.40
68939;BMP180;59064;45.294;11.816;2024-02-04T10:14:58;102293.40;;;11.50
68939;BMP180;59064;45.294;11.816;2024-02-04T10:17:25;102281.80;;;11.50
68939;BMP180;59064;45.294;11.816;2024-02-04T10:19:50;102274.20;;;11.60
68939;BMP180;59064;45.294;11.816;2024-02-04T10:22:16;102272.20;;;11.74
68939;BMP180;59064;45.294;11.816;2024-02-04T10:24:43;102264.40;;;11.80
68939;BMP180;59064;45.294;11.816;2024-02-04T10:27:10;102267.80;;;12.00
68939;BMP180;59064;45.294;11.816;2024-02-04T10:29:36;102271.80;;;12.24
68939;BMP180;59064;45.294;11.816;2024-02-04T10:32:02;102263.80;;;12.40
68939;BMP180;59064;45.294;11.816;2024-02-04T10:34:28;102271.00;;;12.40
68939;BMP180;59064;45.294;11.816;2024-02-04T10:36:56;102269.00;;;12.30
68939;BMP180;59064;45.294;11.816;2024-02-04T10:39:22;102266.20;;;12.30
68939;BMP180;59064;45.294;11.816;2024-02-04T10:41:52;102269.20;;;12.20
68939;BMP180;59064;45.294;11.816;2024-02-04T10:44:23;102255.80;;;12.30
68939;BMP180;59064;45.294;11.816;2024-02-04T10:46:50;102241.80;;;12.20
68939;BMP180;59064;45.294;11.816;2024-02-04T10:49:18;102232.00;;;12.20
68939;BMP180;59064;45.294;11.816;2024-02-04T10:51:45;102235.60;;;12.30
68939;BMP180;59064;45.294;11.816;2024-02-04T10:54:14;102234.40;;;12.50
68939;BMP180;59064;45.294;11.816;2024-02-04T10:56:53;102232.80;;;12.74
68939;BMP180;59064;45.294;11.816;2024-02-04T10:59:21;102239.80;;;12.80
68939;BMP180;59064;45.294;11.816;2024-02-04T11:01:47;102232.80;;;12.90
68939;BMP180;59064;45.294;11.816;2024-02-04T11:04:16;102234.20;;;13.12
68939;BMP180;59064;45.294;11.816;2024-02-04T11:06:42;102241.60;;;13.40
68939;BMP180;59064;45.294;11.816;2024-02-04T11:09:09;102235.60;;;13.68
68939;BMP180;59064;45.294;11.816;2024-02-04T11:11:38;102242.00;;;13.82
68939;BMP180;59064;45.294;11.816;2024-02-04T11:14:05;102235.80;;;14.10
68939;BMP180;59064;45.294;11.816;2024-02-04T11:27:07;102235.20;;;14.40
68939;BMP180;59064;45.294;11.816;2024-02-04T11:29:33;102227.60;;;14.40
68939;BMP180;59064;45.294;11.816;2024-02-04T11:32:01;102222.00;;;14.16
68939;BMP180;59064;45.294;11.816;2024-02-04T11:34:27;102233.00;;;13.90
68939;BMP180;59064;45.294;11.816;2024-02-04T11:36:53;102228.40;;;13.70
68939;BMP180;59064;45.294;11.816;2024-02-04T11:39:18;102225.20;;;13.50
68939;BMP180;59064;45.294;11.816;2024-02-04T11:41:48;102219.40;;;13.30
68939;BMP180;59064;45.294;11.816;2024-02-04T11:44:24;102213.60;;;13.10
68939;BMP180;59064;45.294;11.816;2024-02-04T11:46:52;102215.60;;;13.00
68939;BMP180;59064;45.294;11.816;2024-02-04T11:49:24;102211.60;;;13.00
68939;BMP180;59064;45.294;11.816;2024-02-04T11:51:51;102207.40;;;13.10
68939;BMP180;59064;45.294;11.816;2024-02-04T11:54:17;102213.60;;;13.20
68939;BMP180;59064;45.294;11.816;2024-02-04T11:56:50;102203.80;;;13.30
68939;BMP180;59064;45.294;11.816;2024-02-04T11:59:23;102197.40;;;13.34
68939;BMP180;59064;45.294;11.816;2024-02-04T12:02:05;102201.40;;;13.48
68939;BMP180;59064;45.294;11.816;2024-02-04T12:04:31;102195.80;;;13.60
68939;BMP180;59064;45.294;11.816;2024-02-04T12:06:58;102194.00;;;13.70
68939;BMP180;59064;45.294;11.816;2024-02-04T12:09:24;102188.40;;;13.70
68939;BMP180;59064;45.294;11.816;2024-02-04T12:11:53;102181.40;;;13.78
68939;BMP180;59064;45.294;11.816;2024-02-04T12:14:19;102193.20;;;13.80
68939;BMP180;59064;45.294;11.816;2024-02-04T12:16:45;102190.60;;;13.80
68939;BMP180;59064;45.294;11.816;2024-02-04T12:19:11;102188.60;;;13.90
68939;BMP180;59064;45.294;11.816;2024-02-04T12:21:37;102192.40;;;14.00
68939;BMP180;59064;45.294;11.816;2024-02-04T12:24:03;102183.80;;;14.00
68939;BMP180;59064;45.294;11.816;2024-02-04T12:26:29;102180.00;;;14.00
68939;BMP180;59064;45.294;11.816;2024-02-04T12:28:55;102180.60;;;14.02
68939;BMP180;59064;45.294;11.816;2024-02-04T12:31:24;102183.00;;;14.16
68939;BMP180;59064;45.294;11.816;2024-02-04T12:33:58;102186.80;;;14.40
68939;BMP180;59064;45.294;11.816;2024-02-04T12:36:29;102182.40;;;14.64
68939;BMP180;59064;45.294;11.816;2024-02-04T12:38:56;102184.40;;;14.90
68939;BMP180;59064;45.294;11.816;2024-02-04T12:41:23;102186.60;;;15.10
68939;BMP180;59064;45.294;11.816;2024-02-04T12:43:54;102177.00;;;15.20
68939;BMP180;59064;45.294;11.816;2024-02-04T12:46:21;102164.20;;;15.30
68939;BMP180;59064;45.294;11.816;2024-02-04T12:49:05;102165.20;;;15.30
68939;BMP180;59064;45.294;11.816;2024-02-04T12:51:31;102155.20;;;15.20
68939;BMP180;59064;45.294;11.816;2024-02-04T12:54:17;102158.20;;;14.90
68939;BMP180;59064;45.294;11.816;2024-02-04T12:56:53;102154.60;;;14.70
68939;BMP180;59064;45.294;11.816;2024-02-04T13:01:53;102139.00;;;14.24
68939;BMP180;59064;45.294;11.816;2024-02-04T13:04:19;102142.20;;;14.00
68939;BMP180;59064;45.294;11.816;2024-02-04T13:06:45;102146.60;;;13.78
68939;BMP180;59064;45.294;11.816;2024-02-04T13:09:10;102147.60;;;13.68
68939;BMP180;59064;45.294;11.816;2024-02-04T13:11:36;102149.60;;;13.60
68939;BMP180;59064;45.294;11.816;2024-02-04T13:14:02;102142.00;;;13.50
68939;BMP180;59064;45.294;11.816;2024-02-04T13:16:27;102138.80;;;13.50
68939;BMP180;59064;45.294;11.816;2024-02-04T13:18:55;102141.40;;;13.40
68939;BMP180;59064;45.294;11.816;2024-02-04T13:21:21;102138.20;;;13.40
68939;BMP180;59064;45.294;11.816;2024-02-04T13:23:50;102142.00;;;13.38
68939;BMP180;59064;45.294;11.816;2024-02-04T13:26:16;102130.20;;;13.46
68939;BMP180;59064;45.294;11.816;2024-02-04T13:28:42;102131.80;;;13.70
68939;BMP180;59064;45.294;11.816;2024-02-04T13:31:08;102131.80;;;13.70
68939;BMP180;59064;45.294;11.816;2024-02-04T13:33:33;102128.40;;;13.80
68939;BMP180;59064;45.294;11.816;2024-02-04T13:35:59;102126.60;;;13.80
68939;BMP180;59064;45.294;11.816;2024-02-04T13:38:26;102128.60;;;13.70
68939;BMP180;59064;45.294;11.816;2024-02-04T13:40:53;102128.20;;;13.80
68939;BMP180;59064;45.294;11.816;2024-02-04T13:43:19;102128.60;;;13.80
68939;BMP180;59064;45.294;11.816;2024-02-04T13:45:44;102127.80;;;13.90
68939;BMP180;59064;45.294;11.816;2024-02-04T13:48:10;102132.20;;;14.08
68939;BMP180;59064;45.294;11.816;2024-02-04T13:50:35;102119.80;;;14.20
68939;BMP180;59064;45.294;11.816;2024-02-04T13:53:02;102118.20;;;14.20
68939;BMP180;59064;45.294;11.816;2024-02-04T13:55:28;102120.20;;;14.30
68939;BMP180;59064;45.294;11.816;2024-02-04T13:57:54;102116.80;;;14.60
68939;BMP180;59064;45.294;11.816;2024-02-04T14:00:19;102112.40;;;14.86
68939;BMP180;59064;45.294;11.816;2024-02-04T14:02:45;102108.40;;;15.10
68939;BMP180;59064;45.294;11.816;2024-02-04T14:05:10;102091.60;;;15.10